createdAt,value
2023-03-25T00:03:16.442Z,4.75
2023-03-25T00:08:18.276Z,4.95
2023-03-25T00:13:21.491Z,4.30
2023-03-25T00:18:23.315Z,5.05
2023-03-25T00:23:25.158Z,4.55
2023-03-25T00:28:36.225Z,4.43
2023-03-25T00:33:38.085Z,4.70
2023-03-25T00:38:41.892Z,5.07
2023-03-25T00:43:44.985Z,5.30
2023-03-25T00:48:46.800Z,4.80
2023-03-25T00:53:53.081Z,4.93
2023-03-25T00:58:56.538Z,4.18
2023-03-25T01:03:59.897Z,5.03
2023-03-25T01:09:05.880Z,3.85
2023-03-25T01:14:11.371Z,4.55
2023-03-25T01:19:14.637Z,4.40
2023-03-25T01:24:16.395Z,4.50
2023-03-25T01:29:20.497Z,5.10
2023-03-25T01:34:22.394Z,4.38
2023-03-25T01:39:25.749Z,4.60
2023-03-25T01:44:29.123Z,4.32
2023-03-25T01:49:33.304Z,4.35
2023-03-25T01:54:38.793Z,3.80
2023-03-25T01:59:41.608Z,3.55
2023-03-25T02:04:59.158Z,3.13
2023-03-25T02:10:04.692Z,3.95
2023-03-25T02:15:08.668Z,3.00
2023-03-25T02:20:35.386Z,2.72
2023-03-25T02:26:01.780Z,2.58
2023-03-25T02:31:34.499Z,1.98
2023-03-25T02:36:42.213Z,2.17
2023-03-25T02:42:14.457Z,2.30
2023-03-25T02:47:19.869Z,2.17
2023-03-25T02:52:27.518Z,1.92
2023-03-25T02:57:32.773Z,2.30
2023-03-25T03:02:35.040Z,2.10
2023-03-25T03:07:43.568Z,2.50
2023-03-25T03:13:19.267Z,2.30
2023-03-25T03:18:38.358Z,2.00
2023-03-25T03:23:55.632Z,2.30
2023-03-25T03:29:29.029Z,2.67
2023-03-25T03:34:41.078Z,1.90
2023-03-25T03:39:46.447Z,2.50
2023-03-25T03:44:57.433Z,2.60
2023-03-25T03:50:04.854Z,2.10
2023-03-25T03:55:29.102Z,2.30
2023-03-25T04:00:42.081Z,2.20
2023-03-25T04:05:51.554Z,2.00
2023-03-25T04:11:01.586Z,2.20
2023-03-25T04:16:03.816Z,1.52
2023-03-25T04:21:05.848Z,1.60
2023-03-25T04:26:07.553Z,1.48
2023-03-25T04:31:16.895Z,1.55
2023-03-25T04:36:20.656Z,1.45
2023-03-25T04:41:23.199Z,1.23
2023-03-25T04:46:25.803Z,1.50
2023-03-25T04:51:27.409Z,1.10
2023-03-25T04:56:29.354Z,1.25
2023-03-25T05:01:31.242Z,1.40
2023-03-25T05:06:35.163Z,1.20
2023-03-25T05:11:39.688Z,1.30
2023-03-25T05:16:41.322Z,1.48
2023-03-25T05:21:42.952Z,1.65
2023-03-25T05:26:44.567Z,1.85
2023-03-25T05:31:48.448Z,1.58
2023-03-25T05:36:50.076Z,1.60
2023-03-25T05:41:55.604Z,1.98
2023-03-25T05:46:59.230Z,2.05
2023-03-25T05:52:01.816Z,1.90
2023-03-25T05:57:03.850Z,2.08
2023-03-25T06:02:13.266Z,2.13
2023-03-25T06:07:20.013Z,2.25
2023-03-25T06:12:23.245Z,2.10
2023-03-25T06:17:25.544Z,2.40
2023-03-25T06:22:27.383Z,2.45
2023-03-25T06:27:28.990Z,2.33
2023-03-25T06:32:30.893Z,2.53
2023-03-25T06:37:33.211Z,2.55
2023-03-25T06:42:38.308Z,2.63
2023-03-25T06:48:12.144Z,2.60
2023-03-25T06:53:13.827Z,2.80
2023-03-25T06:58:15.484Z,2.28
2023-03-25T07:03:17.198Z,2.70
2023-03-25T07:08:18.925Z,2.90
2023-03-25T07:13:20.793Z,2.60
2023-03-25T07:18:22.428Z,2.53
2023-03-25T07:23:24.173Z,2.35
2023-03-25T07:28:25.828Z,2.35
2023-03-25T07:33:27.476Z,2.03
2023-03-25T07:38:29.193Z,1.70
2023-03-25T07:43:32.896Z,1.65
2023-03-25T07:48:46.613Z,1.70
2023-03-25T07:53:48.615Z,1.40
2023-03-25T07:58:50.311Z,1.52
2023-03-25T08:03:52.234Z,1.50
2023-03-25T08:08:55.575Z,1.63
2023-03-25T08:13:57.221Z,1.88
2023-03-25T08:18:58.870Z,2.22
2023-03-25T08:24:04.612Z,2.20
2023-03-25T08:29:10.078Z,2.05
2023-03-25T08:34:12.243Z,2.30
2023-03-25T08:39:17.088Z,1.85
2023-03-25T08:44:18.789Z,1.77
2023-03-25T08:49:22.630Z,1.73
2023-03-25T08:54:26.154Z,1.80
2023-03-25T08:59:28.377Z,2.13
2023-03-25T09:04:30.885Z,2.03
2023-03-25T09:09:32.559Z,1.95
2023-03-25T09:14:34.239Z,2.03
2023-03-25T09:19:37.867Z,2.67
2023-03-25T09:24:40.627Z,2.20
2023-03-25T09:29:42.283Z,2.30
2023-03-25T09:34:44.004Z,2.42
2023-03-25T09:39:46.084Z,2.88
2023-03-25T09:44:58.451Z,3.08
2023-03-25T09:50:06.449Z,3.47
2023-03-25T09:55:16.021Z,2.90
2023-03-25T10:00:24.627Z,3.00
2023-03-25T10:05:44.515Z,3.60
2023-03-25T10:11:12.016Z,3.30
2023-03-25T10:16:32.397Z,4.30
2023-03-25T10:21:49.743Z,4.45
2023-03-25T10:26:57.692Z,6.15
2023-03-25T10:32:07.681Z,5.60
2023-03-25T10:37:12.999Z,5.38
2023-03-25T10:42:24.567Z,5.32
2023-03-25T10:47:31.136Z,6.10
2023-03-25T10:52:33.356Z,7.32
2023-03-25T10:57:35.039Z,6.90
2023-03-25T11:02:36.783Z,7.30
2023-03-25T11:07:45.944Z,7.65
2023-03-25T11:12:51.652Z,7.82
2023-03-25T11:18:08.060Z,9.63
2023-03-25T11:23:25.954Z,9.60
2023-03-25T11:28:46.048Z,9.18
2023-03-25T11:34:04.917Z,9.82
2023-03-25T11:39:33.935Z,10.73
2023-03-25T11:44:35.687Z,11.98
2023-03-25T11:49:41.308Z,11.60
2023-03-25T11:54:44.595Z,11.13
2023-03-25T11:59:48.854Z,11.00
2023-03-25T12:05:12.424Z,11.52
2023-03-25T12:10:34.378Z,10.05
2023-03-25T12:15:45.621Z,10.43
2023-03-25T12:21:06.185Z,10.85
2023-03-25T12:26:11.809Z,11.57
2023-03-25T12:31:29.856Z,12.43
2023-03-25T12:37:09.503Z,11.57
2023-03-25T12:42:21.884Z,11.50
2023-03-25T12:47:38.133Z,11.00
2023-03-25T12:53:01.483Z,11.68
2023-03-25T12:58:09.134Z,12.63
2023-03-25T13:03:26.565Z,12.82
2023-03-25T13:08:34.451Z,12.60
2023-03-25T13:13:38.242Z,13.05
2023-03-25T13:18:50.832Z,13.95
2023-03-25T13:24:05.052Z,13.70
2023-03-25T13:29:12.146Z,14.13
2023-03-25T13:34:54.865Z,14.18
2023-03-25T13:40:22.470Z,14.07
2023-03-25T13:45:25.362Z,13.82
2023-03-25T13:50:29.231Z,6.70
2023-03-25T13:55:40.919Z,4.68
2023-03-25T14:01:20.915Z,2.88
2023-03-25T14:06:55.058Z,2.47
2023-03-25T14:12:18.938Z,2.30
2023-03-25T14:17:22.816Z,2.75
2023-03-25T14:22:28.753Z,3.08
2023-03-25T14:27:34.172Z,3.60
2023-03-25T14:32:40.903Z,3.90
2023-03-25T14:37:42.996Z,3.72
2023-03-25T14:43:23.572Z,3.67
2023-03-25T14:48:30.743Z,3.17
2023-03-25T14:53:32.519Z,3.55
2023-03-25T14:58:38.930Z,4.28
2023-03-25T15:03:44.390Z,5.38
2023-03-25T15:08:54.390Z,5.25
2023-03-25T15:13:59.730Z,6.75
2023-03-25T15:19:08.122Z,6.45
2023-03-25T15:24:12.493Z,6.22
2023-03-25T15:29:38.468Z,6.18
2023-03-25T15:34:55.227Z,6.07
2023-03-25T15:40:08.794Z,6.60
2023-03-25T15:45:32.265Z,7.38
2023-03-25T15:50:49.869Z,7.13
2023-03-25T15:56:01.401Z,6.47
2023-03-25T16:01:20.249Z,6.60
2023-03-25T16:06:23.486Z,5.47
2023-03-25T16:11:28.013Z,10.23
2023-03-25T16:16:34.590Z,6.03
2023-03-25T16:21:36.590Z,6.50
2023-03-25T16:26:44.968Z,6.07
2023-03-25T16:31:54.961Z,6.30
2023-03-25T16:36:57.008Z,5.90
2023-03-25T16:42:17.671Z,6.15
2023-03-25T16:47:21.246Z,6.40
2023-03-25T16:52:27.082Z,6.15
2023-03-25T16:57:32.421Z,5.80
2023-03-25T17:02:41.228Z,5.97
2023-03-25T17:07:43.414Z,5.25
2023-03-25T17:12:53.927Z,5.03
2023-03-25T17:18:01.897Z,5.55
2023-03-25T17:23:27.236Z,4.82
2023-03-25T17:28:33.525Z,5.53
2023-03-25T17:38:47.291Z,6.00
2023-03-25T17:43:52.958Z,4.82
2023-03-25T17:48:57.740Z,5.30
2023-03-25T17:53:59.470Z,5.22
2023-03-25T17:59:04.502Z,4.63
2023-03-25T18:04:06.283Z,3.42
2023-03-25T18:09:26.307Z,3.20
2023-03-25T18:14:28.137Z,3.28
2023-03-25T18:19:33.336Z,3.03
2023-03-25T18:24:35.193Z,3.78
2023-03-25T18:29:38.307Z,3.20
2023-03-25T18:34:39.955Z,3.08
2023-03-25T18:39:41.669Z,3.45
2023-03-25T18:44:43.468Z,4.10
2023-03-25T18:49:45.188Z,3.97
2023-03-25T18:54:46.823Z,4.13
2023-03-25T18:59:48.720Z,3.28
2023-03-25T19:05:00.315Z,3.05
2023-03-25T19:10:03.259Z,3.00
2023-03-25T19:15:05.304Z,3.22
2023-03-25T19:20:07.872Z,3.35
2023-03-25T19:25:09.634Z,3.10
2023-03-25T19:30:15.309Z,2.00
2023-03-25T19:35:18.925Z,2.42
2023-03-25T19:40:24.032Z,2.20
2023-03-25T19:45:27.856Z,2.33
2023-03-25T19:50:32.238Z,1.90
2023-03-25T19:55:34.310Z,2.05
2023-03-25T20:00:35.994Z,2.20
2023-03-25T20:05:37.680Z,2.80
2023-03-25T20:10:39.531Z,2.90
2023-03-25T20:15:41.212Z,3.08
2023-03-25T20:20:43.276Z,2.65
2023-03-25T20:25:44.923Z,3.72
2023-03-25T20:30:46.606Z,3.10
2023-03-25T20:35:48.299Z,3.20
2023-03-25T20:40:54.281Z,3.25
2023-03-25T20:45:56.481Z,3.28
2023-03-25T20:51:04.021Z,3.60
2023-03-25T20:56:05.872Z,3.42
2023-03-25T21:01:07.938Z,3.10
2023-03-25T21:06:22.929Z,2.95
2023-03-25T21:11:25.790Z,2.88
2023-03-25T21:16:27.576Z,2.80
2023-03-25T21:21:30.026Z,2.72
2023-03-25T21:26:32.254Z,2.75
2023-03-25T21:31:34.056Z,3.33
2023-03-25T21:36:36.046Z,2.67
2023-03-25T21:41:38.335Z,3.08
2023-03-25T21:46:41.001Z,2.85
2023-03-25T21:51:44.241Z,2.20
2023-03-25T21:56:47.026Z,2.17
2023-03-25T22:01:48.748Z,2.00
2023-03-25T22:06:50.513Z,2.10
2023-03-25T22:11:52.132Z,2.33
2023-03-25T22:16:53.840Z,1.77
2023-03-25T22:21:55.600Z,1.55
2023-03-25T22:26:57.222Z,2.20
2023-03-25T22:32:06.653Z,2.22
2023-03-25T22:37:08.368Z,2.30
2023-03-25T22:42:11.139Z,2.00
2023-03-25T22:47:12.774Z,2.08
2023-03-25T22:52:14.434Z,2.00
2023-03-25T22:57:17.322Z,2.17
2023-03-25T23:02:19.228Z,2.03
2023-03-25T23:07:20.926Z,2.05
2023-03-25T23:12:24.436Z,2.47
2023-03-25T23:17:26.735Z,1.95
2023-03-25T23:22:28.647Z,2.53
2023-03-25T23:27:33.737Z,2.20
2023-03-25T23:32:36.041Z,1.88
2023-03-25T23:37:37.776Z,1.90
2023-03-25T23:42:39.398Z,2.25
2023-03-25T23:47:41.282Z,2.00
2023-03-25T23:52:42.952Z,2.20
2023-03-25T23:57:44.572Z,2.40
